Latest Coastal Weather Observations for Bedout Island

IDW60701

Issued at 12:32 pm WST Sunday 2 August 2015 (issued every 10 minutes, with the page automatically refreshed every 10 minutes)

About coastal observations | Map of coastal stations | Coastal observations for WA | Marine services | Other Formats
Station Details ID: 004100 Name: BEDOUT ISLAND Lat: -19.59 Lon: 119.10 Height: 8.6 m
Data from the previous 72 hours. | See also: Recent months at Bedout Island
Date/Time
WST
Temp

°C
Wind Pressure Rain
since 9am
mm
Weather Cloud Vis
km
Sea
Height
m
Swell
Dir
 
Speed
knots
Gust
knots
hPa Trend Height
m
Period
s
Dir
02/12:30pm 25.4 E 14 15 1017.5 - - - - - - - - -
02/12:00pm 25.1 E 16 17 1017.8 - - - - - - - - -
02/11:30am 24.9 E 16 19 1018.3 - - - - - - - - -
02/11:00am 24.7 ESE 17 19 1018.5 - - - - - - - - -
02/10:30am 24.4 ESE 15 17 1018.7 - - - - - - - - -
02/10:00am 23.7 ESE 16 19 1018.9 - - - - - - - - -
02/09:30am 23.2 ESE 18 21 1018.7 - - - - - - - - -
02/09:00am 22.8 ESE 16 19 1018.3 - - - - - - - - -
02/08:30am 22.3 ESE 17 20 1018.0 - - - - - - - - -
02/08:00am 22.0 ESE 18 20 1017.9 - - - - - - - - -
02/07:30am 21.8 SE 16 21 1017.4 - - - - - - - - -
02/07:00am 21.3 SSE 17 20 1016.8 - - - - - - - - -
02/06:30am 20.7 SSE 12 15 1016.5 - - - - - - - - -
02/06:00am 20.5 S 10 13 1016.2 - - - - - - - - -
02/05:30am 20.4 SSW 9 10 1016.1 - - - - - - - - -
02/05:00am 20.8 SSW 9 10 1015.9 - - - - - - - - -
02/04:30am 21.2 SSW 9 11 1015.9 - - - - - - - - -
02/04:00am 21.5 SSW 10 13 1016.1 - - - - - - - - -
02/03:30am 22.2 SSW 12 14 1016.1 - - - - - - - - -
02/03:00am 22.5 SW 11 13 1016.1 - - - - - - - - -
02/02:30am 22.9 SW 13 15 1016.4 - - - - - - - - -
02/02:00am 22.9 WSW 13 15 1016.5 - - - - - - - - -
02/01:30am 23.1 WSW 12 14 1016.8 - - - - - - - - -
02/01:00am 23.2 WSW 13 15 1016.8 - - - - - - - - -
02/12:30am 23.1 WSW 11 14 1016.8 - - - - - - - - -
02/12:00am 23.1 W 12 14 1016.7 - - - - - - - - -
 
Date/Time
WST
Temp

°C
Wind Pressure Rain
since 9am
mm
Weather Cloud Vis
km
Sea
Height
m
Swell
Dir
 
Speed
knots
Gust
knots
hPa Trend Height
m
Period
s
Dir
01/11:30pm 23.0 W 12 14 1016.9 - - - - - - - - -
01/11:00pm 23.0 W 14 15 1017.0 - - - - - - - - -
01/10:30pm 23.0 W 13 16 1017.0 - - - - - - - - -
01/10:00pm 23.1 W 14 15 1017.0 - - - - - - - - -
01/09:30pm 23.1 W 14 16 1016.9 - - - - - - - - -
01/09:00pm 23.2 W 14 17 1016.5 - - - - - - - - -
01/08:30pm 23.0 W 15 17 1016.4 - - - - - - - - -
01/08:00pm 23.1 W 15 17 1016.4 - - - - - - - - -
01/07:30pm 23.0 W 15 18 1016.0 - - - - - - - - -
01/07:00pm 23.0 WNW 13 15 1015.8 - - - - - - - - -
01/06:30pm 23.0 WNW 14 16 1015.5 - - - - - - - - -
01/06:00pm 23.3 WNW 14 17 1015.1 - - - - - - - - -
01/05:30pm 23.8 WNW 15 17 1015.0 - - - - - - - - -
01/05:00pm 24.5 WNW 14 16 1014.8 - - - - - - - - -
01/04:30pm 24.9 WNW 14 16 1014.8 - - - - - - - - -
01/04:00pm 25.4 W 14 16 1014.7 - - - - - - - - -
01/03:30pm 25.5 W 14 15 1014.7 - - - - - - - - -
01/03:00pm 25.9 W 13 14 1014.8 - - - - - - - - -
01/02:30pm 25.8 W 12 14 1015.1 - - - - - - - - -
01/02:00pm 26.5 W 12 13 1015.3 - - - - - - - - -
01/01:30pm 26.1 W 13 14 1015.5 - - - - - - - - -
01/01:00pm 26.4 WSW 13 15 1015.9 - - - - - - - - -
01/12:30pm 26.4 WSW 14 16 1016.4 - - - - - - - - -
01/12:00pm 26.2 WSW 14 17 1016.7 - - - - - - - - -
01/11:30am 26.2 WSW 14 16 1017.1 - - - - - - - - -
01/11:00am 26.0 WSW 13 15 1017.3 - - - - - - - - -
01/10:30am 25.8 WSW 12 14 1017.6 - - - - - - - - -
01/10:00am 25.6 WSW 12 14 1017.7 - - - - - - - - -
01/09:30am 25.0 W 12 14 1017.6 - - - - - - - - -
01/09:00am 24.6 W 13 15 1017.2 - - - - - - - - -
01/08:30am 24.2 W 12 14 1017.0 - - - - - - - - -
01/08:00am 23.4 W 13 15 1016.8 - - - - - - - - -
01/07:30am 22.7 W 13 15 1016.4 - - - - - - - - -
01/07:00am 22.1 W 12 14 1016.1 - - - - - - - - -
01/06:30am 21.9 W 12 14 1015.7 - - - - - - - - -
01/06:00am 21.5 W 11 12 1015.4 - - - - - - - - -
01/05:30am 21.7 W 11 13 1015.3 - - - - - - - - -
01/05:00am 21.9 WSW 13 15 1015.2 - - - - - - - - -
01/04:30am 21.7 WSW 12 14 1015.1 - - - - - - - - -
01/04:00am 21.5 WSW 10 11 1015.1 - - - - - - - - -
01/03:30am 21.8 WSW 11 12 1015.2 - - - - - - - - -
01/03:00am 21.9 WSW 12 14 1015.2 - - - - - - - - -
01/02:30am 22.1 WSW 12 14 1015.4 - - - - - - - - -
01/02:00am 22.2 W 12 14 1015.5 - - - - - - - - -
01/01:30am 22.3 W 13 15 1015.8 - - - - - - - - -
01/01:00am 22.3 W 12 14 1016.0 - - - - - - - - -
01/12:30am 22.6 W 12 14 1016.3 - - - - - - - - -
01/12:00am 22.4 W 12 13 1016.1 - - - - - - - - -
 
Date/Time
WST
Temp

°C
Wind Pressure Rain
since 9am
mm
Weather Cloud Vis
km
Sea
Height
m
Swell
Dir
 
Speed
knots
Gust
knots
hPa Trend Height
m
Period
s
Dir
31/11:30pm 22.6 W 13 14 1016.3 - - - - - - - - -
31/11:00pm 22.7 W 13 14 1016.3 - - - - - - - - -
31/10:30pm 22.6 WNW 11 12 1016.2 - - - - - - - - -
31/10:00pm 22.4 WNW 10 11 1016.3 - - - - - - - - -
31/09:30pm 22.2 WNW 9 10 1016.4 - - - - - - - - -
31/09:00pm 22.3 WNW 8 9 1016.3 - - - - - - - - -
31/08:30pm 22.2 WNW 8 9 1016.1 - - - - - - - - -
31/08:00pm 21.6 WNW 8 9 1015.8 - - - - - - - - -
31/07:30pm 21.3 WNW 8 9 1015.5 - - - - - - - - -
31/07:00pm 21.7 WNW 8 9 1015.3 - - - - - - - - -
31/06:30pm 21.6 WNW 8 8 1015.1 - - - - - - - - -
31/06:00pm 22.3 WNW 7 8 1014.5 - - - - - - - - -
31/05:30pm 23.6 WNW 7 8 1014.5 - - - - - - - - -
31/05:00pm 24.8 WNW 8 9 1014.5 - - - - - - - - -
31/04:30pm 25.6 WNW 9 9 1014.4 - - - - - - - - -
31/04:00pm 26.0 WNW 8 9 1014.4 - - - - - - - - -
31/03:30pm 26.0 WNW 7 9 1014.3 - - - - - - - - -
31/03:00pm 26.4 WNW 8 9 1014.6 - - - - - - - - -
31/02:30pm 26.0 WNW 8 9 1014.7 - - - - - - - - -
31/02:00pm 25.9 WNW 6 7 1014.9 - - - - - - - - -
31/01:30pm 26.3 WNW 6 7 1015.2 - - - - - - - - -
31/01:00pm 26.5 W 8 9 1015.7 - - - - - - - - -
31/12:30pm 26.5 W 6 7 1016.2 - - - - - - - - -
31/12:00pm 25.9 WSW 6 7 1016.5 - - - - - - - - -
31/11:30am 26.4 S 5 6 1016.9 - - - - - - - - -
31/11:00am 25.5 S 5 6 1017.2 - - - - - - - - -
31/10:30am 25.5 S 5 5 1017.5 - - - - - - - - -
31/10:00am 25.3 SE 5 6 1017.7 - - - - - - - - -
31/09:30am 25.3 SE 6 7 1017.8 - - - - - - - - -
31/09:00am 24.5 SE 6 7 1017.6 - - - - - - - - -
31/08:30am 23.8 SE 5 6 1017.6 - - - - - - - - -
31/08:00am 23.3 SE 6 7 1017.4 - - - - - - - - -
31/07:30am 22.2 E 6 7 1017.1 - - - - - - - - -
31/07:00am 20.8 E 6 7 1016.8 - - - - - - - - -
31/06:30am 19.9 SE 6 8 1016.6 - - - - - - - - -
31/06:00am 19.8 SE 6 7 1016.1 - - - - - - - - -
31/05:30am 19.8 SE 5 6 1016.0 - - - - - - - - -
31/05:00am 19.4 SE 7 8 1015.7 - - - - - - - - -
31/04:30am 19.8 SSE 7 9 1015.8 - - - - - - - - -
31/04:00am 19.8 SSE 7 9 1015.9 - - - - - - - - -
31/03:30am 20.1 S 8 9 1016.1 - - - - - - - - -
31/03:00am 20.5 S 9 11 1016.1 - - - - - - - - -
31/02:30am 21.0 S 9 11 1016.2 - - - - - - - - -
31/02:00am 21.2 SSW 9 11 1016.4 - - - - - - - - -
31/01:30am 21.3 SSW 9 11 1016.8 - - - - - - - - -
31/01:00am 21.6 SSW 10 11 1016.9 - - - - - - - - -
31/12:30am 21.9 SSW 9 11 1017.1 - - - - - - - - -
31/12:00am 22.1 SW 10 11 1017.2 - - - - - - - - -
 
Date/Time
WST
Temp

°C
Wind Pressure Rain
since 9am
mm
Weather Cloud Vis
km
Sea
Height
m
Swell
Dir
 
Speed
knots
Gust
knots
hPa Trend Height
m
Period
s
Dir
30/11:30pm 22.1 SW 9 10 1017.5 - - - - - - - - -
30/11:00pm 21.9 WSW 7 9 1017.7 - - - - - - - - -
30/10:30pm 22.1 W 8 9 1018.0 - - - - - - - - -
30/10:00pm 22.1 WSW 7 8 1018.1 - - - - - - - - -
30/09:30pm 22.1 W 9 10 1017.9 - - - - - - - - -
30/09:00pm 21.4 NW 7 8 1017.8 - - - - - - - - -
30/08:30pm 21.2 NW 7 7 1017.8 - - - - - - - - -
30/08:00pm 21.5 NW 7 8 1017.8 - - - - - - - - -
30/07:30pm 20.9 NNW 7 8 1017.5 - - - - - - - - -
30/07:00pm 21.5 NNW 6 7 1017.1 - - - - - - - - -
30/06:30pm 21.9 N 8 9 1016.9 - - - - - - - - -
30/06:00pm 21.6 NNE 7 8 1016.7 - - - - - - - - -
30/05:30pm 22.8 NNE 7 8 1016.8 - - - - - - - - -
30/05:00pm 24.4 NE 9 11 1016.6 - - - - - - - - -
30/04:30pm 25.4 NE 7 8 1016.7 - - - - - - - - -
30/04:00pm 25.8 NE 9 10 1016.6 - - - - - - - - -
30/03:30pm 25.9 ENE 9 11 1016.6 - - - - - - - - -
30/03:00pm 25.8 E 9 10 1016.8 - - - - - - - - -
30/02:30pm 26.3 E 9 11 1017.1 - - - - - - - - -
30/02:00pm 26.1 E 10 12 1017.6 - - - - - - - - -
30/01:30pm 26.4 ESE 11 12 1018.0 - - - - - - - - -
30/01:00pm 26.1 E 11 13 1018.3 - - - - - - - - -

Other Formats:

Comma delimited format used in spreadsheet applications
http://www.bom.gov.au/fwo/IDW60701/IDW60701.94310.axf

JavaScript Object Notation format (JSON) in row-major order
http://www.bom.gov.au/fwo/IDW60701/IDW60701.94310.json